sensor_id;sensor_type;location;lat;lon;timestamp;temperature;humidity
792;DHT22;379;49.022;12.148;2023-04-23T00:00:55;12.40;85.30
792;DHT22;379;49.022;12.148;2023-04-23T00:03:23;12.40;85.40
792;DHT22;379;49.022;12.148;2023-04-23T00:05:51;12.40;85.70
792;DHT22;379;49.022;12.148;2023-04-23T00:08:19;12.40;85.80
792;DHT22;379;49.022;12.148;2023-04-23T00:10:46;12.40;86.00
792;DHT22;379;49.022;12.148;2023-04-23T00:13:13;12.50;86.10
792;DHT22;379;49.022;12.148;2023-04-23T00:15:42;12.50;86.60
792;DHT22;379;49.022;12.148;2023-04-23T00:18:09;12.50;87.50
792;DHT22;379;49.022;12.148;2023-04-23T00:20:36;12.50;87.00
792;DHT22;379;49.022;12.148;2023-04-23T00:23:02;12.50;87.40
792;DHT22;379;49.022;12.148;2023-04-23T00:25:29;12.50;87.70
792;DHT22;379;49.022;12.148;2023-04-23T00:27:56;12.50;88.60
792;DHT22;379;49.022;12.148;2023-04-23T00:30:23;12.50;88.10
792;DHT22;379;49.022;12.148;2023-04-23T00:32:51;12.50;88.30
792;DHT22;379;49.022;12.148;2023-04-23T00:35:18;12.50;88.50
792;DHT22;379;49.022;12.148;2023-04-23T00:37:45;12.50;88.80
792;DHT22;379;49.022;12.148;2023-04-23T00:40:12;12.40;89.00
792;DHT22;379;49.022;12.148;2023-04-23T00:42:39;12.40;90.10
792;DHT22;379;49.022;12.148;2023-04-23T00:45:07;12.30;90.10
792;DHT22;379;49.022;12.148;2023-04-23T00:47:34;12.20;90.60
792;DHT22;379;49.022;12.148;2023-04-23T00:50:03;12.10;91.10
792;DHT22;379;49.022;12.148;2023-04-23T00:52:31;12.00;91.90
792;DHT22;379;49.022;12.148;2023-04-23T00:54:57;11.90;92.20
792;DHT22;379;49.022;12.148;2023-04-23T00:57:24;11.80;92.60
792;DHT22;379;49.022;12.148;2023-04-23T00:59:52;11.80;93.30
792;DHT22;379;49.022;12.148;2023-04-23T01:02:21;11.80;93.80
792;DHT22;379;49.022;12.148;2023-04-23T01:04:49;11.70;94.30
792;DHT22;379;49.022;12.148;2023-04-23T01:07:17;11.70;94.80
792;DHT22;379;49.022;12.148;2023-04-23T01:09:44;11.70;95.70
792;DHT22;379;49.022;12.148;2023-04-23T01:12:12;11.80;96.20
792;DHT22;379;49.022;12.148;2023-04-23T01:14:41;11.90;96.50
792;DHT22;379;49.022;12.148;2023-04-23T01:17:08;11.90;95.90
792;DHT22;379;49.022;12.148;2023-04-23T01:19:36;12.00;95.80
792;DHT22;379;49.022;12.148;2023-04-23T01:22:08;11.90;95.90
792;DHT22;379;49.022;12.148;2023-04-23T01:24:35;11.80;96.30
792;DHT22;379;49.022;12.148;2023-04-23T01:27:02;11.70;96.90
792;DHT22;379;49.022;12.148;2023-04-23T01:29:29;11.70;97.70
792;DHT22;379;49.022;12.148;2023-04-23T01:31:57;11.70;98.10
792;DHT22;379;49.022;12.148;2023-04-23T01:34:25;11.70;98.30
792;DHT22;379;49.022;12.148;2023-04-23T01:36:53;11.70;98.40
792;DHT22;379;49.022;12.148;2023-04-23T01:39:21;11.70;98.50
792;DHT22;379;49.022;12.148;2023-04-23T01:41:48;11.70;98.60
792;DHT22;379;49.022;12.148;2023-04-23T01:44:15;11.70;98.80
792;DHT22;379;49.022;12.148;2023-04-23T01:46:42;11.70;99.00
792;DHT22;379;49.022;12.148;2023-04-23T01:49:08;11.70;99.30
792;DHT22;379;49.022;12.148;2023-04-23T01:51:36;11.70;99.40
792;DHT22;379;49.022;12.148;2023-04-23T01:54:03;11.70;99.60
792;DHT22;379;49.022;12.148;2023-04-23T01:56:31;11.80;99.60
792;DHT22;379;49.022;12.148;2023-04-23T01:59:00;11.80;99.60
792;DHT22;379;49.022;12.148;2023-04-23T02:01:40;11.80;99.70
792;DHT22;379;49.022;12.148;2023-04-23T02:04:08;11.80;99.70
792;DHT22;379;49.022;12.148;2023-04-23T02:06:35;11.80;99.80
792;DHT22;379;49.022;12.148;2023-04-23T02:09:02;11.70;99.80
792;DHT22;379;49.022;12.148;2023-04-23T02:11:30;11.70;99.90
792;DHT22;379;49.022;12.148;2023-04-23T02:13:57;11.70;99.90
792;DHT22;379;49.022;12.148;2023-04-23T02:16:23;11.70;99.90
792;DHT22;379;49.022;12.148;2023-04-23T02:18:50;11.70;99.90
792;DHT22;379;49.022;12.148;2023-04-23T02:21:17;11.60;99.90
792;DHT22;379;49.022;12.148;2023-04-23T02:23:44;11.60;99.90
792;DHT22;379;49.022;12.148;2023-04-23T02:26:11;11.50;99.90
792;DHT22;379;49.022;12.148;2023-04-23T02:28:39;11.60;99.90
792;DHT22;379;49.022;12.148;2023-04-23T02:31:05;11.60;99.90
792;DHT22;379;49.022;12.148;2023-04-23T02:33:32;11.60;99.90
792;DHT22;379;49.022;12.148;2023-04-23T02:35:59;11.60;99.90
792;DHT22;379;49.022;12.148;2023-04-23T02:38:26;11.50;99.90
792;DHT22;379;49.022;12.148;2023-04-23T02:40:52;11.50;99.90
792;DHT22;379;49.022;12.148;2023-04-23T02:43:19;11.50;99.90
792;DHT22;379;49.022;12.148;2023-04-23T02:45:47;11.40;99.90
792;DHT22;379;49.022;12.148;2023-04-23T02:48:14;11.30;99.90
792;DHT22;379;49.022;12.148;2023-04-23T02:50:41;11.30;99.90
792;DHT22;379;49.022;12.148;2023-04-23T02:53:07;11.20;99.90
792;DHT22;379;49.022;12.148;2023-04-23T02:55:34;11.20;99.90
792;DHT22;379;49.022;12.148;2023-04-23T02:58:01;11.20;99.90
792;DHT22;379;49.022;12.148;2023-04-23T03:00:28;11.20;99.90
792;DHT22;379;49.022;12.148;2023-04-23T03:02:56;11.20;99.90
792;DHT22;379;49.022;12.148;2023-04-23T03:05:22;11.20;99.90
792;DHT22;379;49.022;12.148;2023-04-23T03:07:49;11.30;99.90
792;DHT22;379;49.022;12.148;2023-04-23T03:10:16;11.30;99.90
792;DHT22;379;49.022;12.148;2023-04-23T03:12:43;11.20;99.90
792;DHT22;379;49.022;12.148;2023-04-23T03:15:10;11.30;99.90
792;DHT22;379;49.022;12.148;2023-04-23T03:17:37;11.30;99.90
792;DHT22;379;49.022;12.148;2023-04-23T03:20:07;11.40;99.90
792;DHT22;379;49.022;12.148;2023-04-23T03:22:35;11.40;99.90
792;DHT22;379;49.022;12.148;2023-04-23T03:25:02;11.40;99.90
792;DHT22;379;49.022;12.148;2023-04-23T03:27:29;11.50;99.90
792;DHT22;379;49.022;12.148;2023-04-23T03:29:56;11.60;99.90
792;DHT22;379;49.022;12.148;2023-04-23T03:32:23;11.60;99.90
792;DHT22;379;49.022;12.148;2023-04-23T03:34:50;11.60;99.90
792;DHT22;379;49.022;12.148;2023-04-23T03:37:18;11.60;99.90
792;DHT22;379;49.022;12.148;2023-04-23T03:39:44;11.60;99.90
792;DHT22;379;49.022;12.148;2023-04-23T03:42:11;11.70;99.90
792;DHT22;379;49.022;12.148;2023-04-23T03:44:38;11.70;99.90
792;DHT22;379;49.022;12.148;2023-04-23T03:47:05;11.70;99.90
792;DHT22;379;49.022;12.148;2023-04-23T03:49:31;11.70;99.90
792;DHT22;379;49.022;12.148;2023-04-23T03:51:58;11.70;99.90
792;DHT22;379;49.022;12.148;2023-04-23T03:54:26;11.70;99.90
792;DHT22;379;49.022;12.148;2023-04-23T03:56:53;11.70;99.90
792;DHT22;379;49.022;12.148;2023-04-23T03:59:20;11.60;99.90
792;DHT22;379;49.022;12.148;2023-04-23T04:01:47;11.50;99.90
792;DHT22;379;49.022;12.148;2023-04-23T04:04:14;11.50;99.90
792;DHT22;379;49.022;12.148;2023-04-23T04:06:40;11.50;99.90
792;DHT22;379;49.022;12.148;2023-04-23T04:09:07;11.50;99.90
792;DHT22;379;49.022;12.148;2023-04-23T04:11:35;11.50;99.90
792;DHT22;379;49.022;12.148;2023-04-23T04:14:02;11.50;99.90
792;DHT22;379;49.022;12.148;2023-04-23T04:16:29;11.50;99.90
792;DHT22;379;49.022;12.148;2023-04-23T04:18:55;11.60;99.90
792;DHT22;379;49.022;12.148;2023-04-23T04:21:22;11.60;99.90
792;DHT22;379;49.022;12.148;2023-04-23T04:23:49;11.70;99.90
792;DHT22;379;49.022;12.148;2023-04-23T04:26:15;11.70;99.90
792;DHT22;379;49.022;12.148;2023-04-23T04:28:44;11.70;99.90
792;DHT22;379;49.022;12.148;2023-04-23T04:31:12;11.70;99.90
792;DHT22;379;49.022;12.148;2023-04-23T04:33:40;11.80;99.90
792;DHT22;379;49.022;12.148;2023-04-23T04:36:07;11.80;99.90
792;DHT22;379;49.022;12.148;2023-04-23T04:38:34;11.80;99.90
792;DHT22;379;49.022;12.148;2023-04-23T04:41:03;11.80;99.90
792;DHT22;379;49.022;12.148;2023-04-23T04:43:31;11.90;99.90
792;DHT22;379;49.022;12.148;2023-04-23T04:46:00;11.90;99.90
792;DHT22;379;49.022;12.148;2023-04-23T04:48:27;12.00;99.90
792;DHT22;379;49.022;12.148;2023-04-23T04:50:53;12.00;99.90
792;DHT22;379;49.022;12.148;2023-04-23T04:53:20;12.00;99.90
792;DHT22;379;49.022;12.148;2023-04-23T04:55:47;12.00;99.90
792;DHT22;379;49.022;12.148;2023-04-23T04:58:14;12.00;99.90
792;DHT22;379;49.022;12.148;2023-04-23T05:00:41;12.00;99.90
792;DHT22;379;49.022;12.148;2023-04-23T05:03:10;12.00;99.90
792;DHT22;379;49.022;12.148;2023-04-23T05:05:37;12.00;99.90
792;DHT22;379;49.022;12.148;2023-04-23T05:08:04;12.00;99.90
792;DHT22;379;49.022;12.148;2023-04-23T05:10:30;12.10;99.90
792;DHT22;379;49.022;12.148;2023-04-23T05:12:57;12.10;99.90
792;DHT22;379;49.022;12.148;2023-04-23T05:15:24;12.10;99.90
792;DHT22;379;49.022;12.148;2023-04-23T05:17:50;12.10;99.90
792;DHT22;379;49.022;12.148;2023-04-23T05:20:20;12.10;99.90
792;DHT22;379;49.022;12.148;2023-04-23T05:22:47;12.20;99.90
792;DHT22;379;49.022;12.148;2023-04-23T05:25:14;12.10;99.90
792;DHT22;379;49.022;12.148;2023-04-23T05:27:41;12.20;99.90
792;DHT22;379;49.022;12.148;2023-04-23T05:30:09;12.20;99.90
792;DHT22;379;49.022;12.148;2023-04-23T05:32:36;12.20;99.90
792;DHT22;379;49.022;12.148;2023-04-23T05:35:04;12.30;99.90
792;DHT22;379;49.022;12.148;2023-04-23T05:37:32;12.30;99.90
792;DHT22;379;49.022;12.148;2023-04-23T05:39:59;12.40;99.90
792;DHT22;379;49.022;12.148;2023-04-23T05:42:27;12.40;99.90
792;DHT22;379;49.022;12.148;2023-04-23T05:44:54;12.40;99.90
792;DHT22;379;49.022;12.148;2023-04-23T05:47:20;12.40;99.90
792;DHT22;379;49.022;12.148;2023-04-23T05:49:47;12.40;99.90
792;DHT22;379;49.022;12.148;2023-04-23T05:52:14;12.40;99.90
792;DHT22;379;49.022;12.148;2023-04-23T05:54:42;12.40;99.90
792;DHT22;379;49.022;12.148;2023-04-23T05:57:09;12.40;99.90
792;DHT22;379;49.022;12.148;2023-04-23T05:59:36;12.40;99.90
792;DHT22;379;49.022;12.148;2023-04-23T06:02:02;12.50;99.90
792;DHT22;379;49.022;12.148;2023-04-23T06:04:29;12.60;99.90
792;DHT22;379;49.022;12.148;2023-04-23T06:06:56;12.70;99.90
792;DHT22;379;49.022;12.148;2023-04-23T06:09:23;12.90;99.90
792;DHT22;379;49.022;12.148;2023-04-23T06:11:52;13.00;99.90
792;DHT22;379;49.022;12.148;2023-04-23T06:14:19;13.20;99.50
792;DHT22;379;49.022;12.148;2023-04-23T06:16:46;13.30;98.90
792;DHT22;379;49.022;12.148;2023-04-23T06:19:12;13.40;98.20
792;DHT22;379;49.022;12.148;2023-04-23T06:21:39;13.50;98.00
792;DHT22;379;49.022;12.148;2023-04-23T06:24:06;13.60;97.50
792;DHT22;379;49.022;12.148;2023-04-23T06:26:33;13.70;97.00
792;DHT22;379;49.022;12.148;2023-04-23T06:29:01;13.70;96.70
792;DHT22;379;49.022;12.148;2023-04-23T06:31:28;13.70;95.20
792;DHT22;379;49.022;12.148;2023-04-23T06:33:55;13.60;95.20
792;DHT22;379;49.022;12.148;2023-04-23T06:36:22;13.60;95.30
792;DHT22;379;49.022;12.148;2023-04-23T06:38:48;13.60;95.10
792;DHT22;379;49.022;12.148;2023-04-23T06:41:15;13.60;94.40
792;DHT22;379;49.022;12.148;2023-04-23T06:43:42;13.70;94.60
792;DHT22;379;49.022;12.148;2023-04-23T06:46:11;13.80;94.60
792;DHT22;379;49.022;12.148;2023-04-23T06:48:38;13.90;94.40
792;DHT22;379;49.022;12.148;2023-04-23T06:51:05;14.00;94.10
792;DHT22;379;49.022;12.148;2023-04-23T06:53:32;14.00;93.50
792;DHT22;379;49.022;12.148;2023-04-23T06:55:59;14.00;93.50
792;DHT22;379;49.022;12.148;2023-04-23T06:58:25;14.00;93.20
792;DHT22;379;49.022;12.148;2023-04-23T07:00:56;13.90;93.30
792;DHT22;379;49.022;12.148;2023-04-23T07:03:26;13.90;92.90
792;DHT22;379;49.022;12.148;2023-04-23T07:05:53;13.80;92.80
792;DHT22;379;49.022;12.148;2023-04-23T07:08:20;13.80;92.90
792;DHT22;379;49.022;12.148;2023-04-23T07:10:47;13.80;93.20
792;DHT22;379;49.022;12.148;2023-04-23T07:13:14;13.90;92.90
792;DHT22;379;49.022;12.148;2023-04-23T07:15:41;13.90;92.80
792;DHT22;379;49.022;12.148;2023-04-23T07:18:08;14.00;92.70
792;DHT22;379;49.022;12.148;2023-04-23T07:20:37;14.00;92.60
792;DHT22;379;49.022;12.148;2023-04-23T07:23:04;14.10;92.40
792;DHT22;379;49.022;12.148;2023-04-23T07:25:30;14.10;91.90
792;DHT22;379;49.022;12.148;2023-04-23T07:27:57;14.00;92.00
792;DHT22;379;49.022;12.148;2023-04-23T07:30:25;14.10;92.20
792;DHT22;379;49.022;12.148;2023-04-23T07:32:52;14.00;92.00
792;DHT22;379;49.022;12.148;2023-04-23T07:35:20;13.90;91.80
792;DHT22;379;49.022;12.148;2023-04-23T07:37:48;13.90;92.10
792;DHT22;379;49.022;12.148;2023-04-23T07:40:19;13.90;92.20
792;DHT22;379;49.022;12.148;2023-04-23T07:42:46;13.80;92.20
792;DHT22;379;49.022;12.148;2023-04-23T07:45:13;13.80;92.20
792;DHT22;379;49.022;12.148;2023-04-23T07:47:40;13.90;92.70
792;DHT22;379;49.022;12.148;2023-04-23T07:50:07;14.00;92.20
792;DHT22;379;49.022;12.148;2023-04-23T07:52:34;14.10;92.30
792;DHT22;379;49.022;12.148;2023-04-23T07:55:02;14.10;92.00
792;DHT22;379;49.022;12.148;2023-04-23T07:57:29;14.00;92.20
792;DHT22;379;49.022;12.148;2023-04-23T07:59:56;14.00;92.90
792;DHT22;379;49.022;12.148;2023-04-23T08:02:23;13.80;93.20
792;DHT22;379;49.022;12.148;2023-04-23T08:04:51;13.60;93.60
792;DHT22;379;49.022;12.148;2023-04-23T08:07:18;13.50;94.20
792;DHT22;379;49.022;12.148;2023-04-23T08:09:45;13.30;94.60
792;DHT22;379;49.022;12.148;2023-04-23T08:12:13;13.30;95.20
792;DHT22;379;49.022;12.148;2023-04-23T08:14:41;13.20;95.70
792;DHT22;379;49.022;12.148;2023-04-23T08:17:08;13.20;96.00
792;DHT22;379;49.022;12.148;2023-04-23T08:19:35;13.30;96.60
792;DHT22;379;49.022;12.148;2023-04-23T08:22:01;13.40;96.80
792;DHT22;379;49.022;12.148;2023-04-23T08:24:28;13.40;96.90
792;DHT22;379;49.022;12.148;2023-04-23T08:26:55;13.50;97.10
792;DHT22;379;49.022;12.148;2023-04-23T08:29:23;13.60;97.30
792;DHT22;379;49.022;12.148;2023-04-23T08:31:50;13.70;97.50
792;DHT22;379;49.022;12.148;2023-04-23T08:34:17;13.60;97.70
792;DHT22;379;49.022;12.148;2023-04-23T08:36:43;13.60;97.90
792;DHT22;379;49.022;12.148;2023-04-23T08:39:10;13.50;98.10
792;DHT22;379;49.022;12.148;2023-04-23T08:41:39;13.50;98.50
792;DHT22;379;49.022;12.148;2023-04-23T08:44:11;13.50;98.90
792;DHT22;379;49.022;12.148;2023-04-23T08:46:42;13.70;99.30
792;DHT22;379;49.022;12.148;2023-04-23T08:49:13;13.80;99.40
792;DHT22;379;49.022;12.148;2023-04-23T08:51:47;13.70;99.20
792;DHT22;379;49.022;12.148;2023-04-23T08:54:18;13.60;99.40
792;DHT22;379;49.022;12.148;2023-04-23T08:56:45;13.60;99.70
792;DHT22;379;49.022;12.148;2023-04-23T08:59:12;13.70;99.90
792;DHT22;379;49.022;12.148;2023-04-23T09:01:40;13.70;99.90
792;DHT22;379;49.022;12.148;2023-04-23T09:04:08;13.80;99.90
792;DHT22;379;49.022;12.148;2023-04-23T09:06:35;13.90;99.90
792;DHT22;379;49.022;12.148;2023-04-23T09:09:03;14.10;99.90
792;DHT22;379;49.022;12.148;2023-04-23T09:11:31;14.30;99.90
792;DHT22;379;49.022;12.148;2023-04-23T09:13:59;14.60;99.90
792;DHT22;379;49.022;12.148;2023-04-23T09:16:26;14.80;99.90
792;DHT22;379;49.022;12.148;2023-04-23T09:18:54;15.00;99.90
792;DHT22;379;49.022;12.148;2023-04-23T09:21:21;15.20;99.90
792;DHT22;379;49.022;12.148;2023-04-23T09:23:49;15.20;99.90
792;DHT22;379;49.022;12.148;2023-04-23T09:26:18;15.00;99.40
792;DHT22;379;49.022;12.148;2023-04-23T09:28:48;14.70;98.60
792;DHT22;379;49.022;12.148;2023-04-23T09:31:19;14.50;98.90
792;DHT22;379;49.022;12.148;2023-04-23T09:33:50;14.30;99.20
792;DHT22;379;49.022;12.148;2023-04-23T09:36:21;14.10;99.60
792;DHT22;379;49.022;12.148;2023-04-23T09:38:48;14.00;99.90
792;DHT22;379;49.022;12.148;2023-04-23T09:41:22;13.90;99.90
792;DHT22;379;49.022;12.148;2023-04-23T09:43:49;14.00;99.90
792;DHT22;379;49.022;12.148;2023-04-23T09:46:17;13.90;99.90
792;DHT22;379;49.022;12.148;2023-04-23T09:48:44;13.90;99.90
792;DHT22;379;49.022;12.148;2023-04-23T09:51:13;14.00;99.90
792;DHT22;379;49.022;12.148;2023-04-23T09:53:42;14.30;99.90
792;DHT22;379;49.022;12.148;2023-04-23T09:56:10;14.60;99.90
792;DHT22;379;49.022;12.148;2023-04-23T09:58:37;15.10;99.90
792;DHT22;379;49.022;12.148;2023-04-23T10:01:07;15.60;99.90
792;DHT22;379;49.022;12.148;2023-04-23T10:03:34;16.00;98.80
792;DHT22;379;49.022;12.148;2023-04-23T10:06:01;16.20;97.90
792;DHT22;379;49.022;12.148;2023-04-23T10:08:28;16.30;96.50
792;DHT22;379;49.022;12.148;2023-04-23T10:10:57;16.30;95.80
792;DHT22;379;49.022;12.148;2023-04-23T10:13:24;16.40;95.20
792;DHT22;379;49.022;12.148;2023-04-23T10:15:52;16.50;94.80
792;DHT22;379;49.022;12.148;2023-04-23T10:18:19;16.30;94.70
792;DHT22;379;49.022;12.148;2023-04-23T10:20:47;16.20;95.10
792;DHT22;379;49.022;12.148;2023-04-23T10:23:16;16.20;95.50
792;DHT22;379;49.022;12.148;2023-04-23T10:25:44;16.20;96.00
792;DHT22;379;49.022;12.148;2023-04-23T10:28:16;16.20;95.80
792;DHT22;379;49.022;12.148;2023-04-23T10:30:46;16.20;94.70
792;DHT22;379;49.022;12.148;2023-04-23T10:33:14;16.10;94.30
792;DHT22;379;49.022;12.148;2023-04-23T10:35:41;16.00;94.20
792;DHT22;379;49.022;12.148;2023-04-23T10:38:09;16.10;94.90
792;DHT22;379;49.022;12.148;2023-04-23T10:40:37;16.10;94.60
792;DHT22;379;49.022;12.148;2023-04-23T10:43:05;16.10;94.90
792;DHT22;379;49.022;12.148;2023-04-23T10:45:33;16.20;94.50
792;DHT22;379;49.022;12.148;2023-04-23T10:48:00;16.20;94.50
792;DHT22;379;49.022;12.148;2023-04-23T10:50:31;16.10;94.10
792;DHT22;379;49.022;12.148;2023-04-23T10:53:01;16.10;93.70
792;DHT22;379;49.022;12.148;2023-04-23T10:55:29;16.10;93.40
792;DHT22;379;49.022;12.148;2023-04-23T10:58:01;16.10;93.40
792;DHT22;379;49.022;12.148;2023-04-23T11:00:42;16.10;93.20
792;DHT22;379;49.022;12.148;2023-04-23T11:03:30;16.10;92.60
792;DHT22;379;49.022;12.148;2023-04-23T11:05:59;16.40;92.20
792;DHT22;379;49.022;12.148;2023-04-23T11:08:28;16.60;91.80
792;DHT22;379;49.022;12.148;2023-04-23T11:10:59;16.70;91.30
792;DHT22;379;49.022;12.148;2023-04-23T11:13:30;16.80;90.90
792;DHT22;379;49.022;12.148;2023-04-23T11:16:14;16.90;90.80
792;DHT22;379;49.022;12.148;2023-04-23T11:19:00;17.10;90.60
792;DHT22;379;49.022;12.148;2023-04-23T11:21:57;17.30;89.10
792;DHT22;379;49.022;12.148;2023-04-23T11:24:25;17.50;89.00
792;DHT22;379;49.022;12.148;2023-04-23T11:26:53;17.70;89.20
792;DHT22;379;49.022;12.148;2023-04-23T11:29:21;17.90;85.90
792;DHT22;379;49.022;12.148;2023-04-23T11:31:50;18.00;84.50
792;DHT22;379;49.022;12.148;2023-04-23T11:34:17;18.30;83.50
792;DHT22;379;49.022;12.148;2023-04-23T11:36:45;18.60;83.30
792;DHT22;379;49.022;12.148;2023-04-23T11:39:12;19.00;81.60
792;DHT22;379;49.022;12.148;2023-04-23T11:41:39;19.30;80.80
792;DHT22;379;49.022;12.148;2023-04-23T11:44:07;19.60;80.10
792;DHT22;379;49.022;12.148;2023-04-23T11:46:34;20.00;78.20
792;DHT22;379;49.022;12.148;2023-04-23T11:49:02;20.20;76.40
792;DHT22;379;49.022;12.148;2023-04-23T11:51:30;20.30;75.50
792;DHT22;379;49.022;12.148;2023-04-23T11:54:02;20.30;73.20
792;DHT22;379;49.022;12.148;2023-04-23T11:56:29;20.00;69.60
792;DHT22;379;49.022;12.148;2023-04-23T11:59:00;19.30;70.20
792;DHT22;379;49.022;12.148;2023-04-23T12:01:41;18.90;73.50
792;DHT22;379;49.022;12.148;2023-04-23T12:04:11;18.90;75.00
792;DHT22;379;49.022;12.148;2023-04-23T12:06:40;18.90;75.60
792;DHT22;379;49.022;12.148;2023-04-23T12:09:08;19.00;75.30
792;DHT22;379;49.022;12.148;2023-04-23T12:11:36;19.20;75.10
792;DHT22;379;49.022;12.148;2023-04-23T12:14:03;19.40;73.70
792;DHT22;379;49.022;12.148;2023-04-23T12:16:38;19.60;73.10
792;DHT22;379;49.022;12.148;2023-04-23T12:19:11;19.70;73.50
792;DHT22;379;49.022;12.148;2023-04-23T12:21:49;19.40;73.60
792;DHT22;379;49.022;12.148;2023-04-23T12:24:19;19.10;74.00
792;DHT22;379;49.022;12.148;2023-04-23T12:26:49;18.80;74.70
792;DHT22;379;49.022;12.148;2023-04-23T12:29:19;18.80;76.30
792;DHT22;379;49.022;12.148;2023-04-23T12:31:46;18.90;76.80
792;DHT22;379;49.022;12.148;2023-04-23T12:34:15;18.90;76.00
792;DHT22;379;49.022;12.148;2023-04-23T12:36:44;18.90;75.90
792;DHT22;379;49.022;12.148;2023-04-23T12:39:32;18.90;74.40
792;DHT22;379;49.022;12.148;2023-04-23T12:42:01;18.90;75.00
792;DHT22;379;49.022;12.148;2023-04-23T12:44:30;19.00;73.90
792;DHT22;379;49.022;12.148;2023-04-23T12:46:59;18.70;74.00
792;DHT22;379;49.022;12.148;2023-04-23T12:49:29;18.50;71.40
792;DHT22;379;49.022;12.148;2023-04-23T12:51:56;18.40;70.00
792;DHT22;379;49.022;12.148;2023-04-23T12:54:27;18.30;71.60
792;DHT22;379;49.022;12.148;2023-04-23T12:56:54;18.50;72.80
792;DHT22;379;49.022;12.148;2023-04-23T12:59:21;18.90;72.50
792;DHT22;379;49.022;12.148;2023-04-23T13:01:48;19.20;72.20
792;DHT22;379;49.022;12.148;2023-04-23T13:04:15;19.30;71.80
792;DHT22;379;49.022;12.148;2023-04-23T13:06:43;19.00;71.20
792;DHT22;379;49.022;12.148;2023-04-23T13:09:10;18.70;69.60
792;DHT22;379;49.022;12.148;2023-04-23T13:11:38;18.40;70.00
792;DHT22;379;49.022;12.148;2023-04-23T13:14:05;18.10;71.00
792;DHT22;379;49.022;12.148;2023-04-23T13:16:32;18.00;72.10
792;DHT22;379;49.022;12.148;2023-04-23T13:18:59;17.80;72.20
792;DHT22;379;49.022;12.148;2023-04-23T13:21:26;17.70;71.60
792;DHT22;379;49.022;12.148;2023-04-23T13:23:56;17.70;72.50
792;DHT22;379;49.022;12.148;2023-04-23T13:26:22;17.80;73.30
792;DHT22;379;49.022;12.148;2023-04-23T13:28:49;17.90;74.00
792;DHT22;379;49.022;12.148;2023-04-23T13:31:16;18.10;74.50
792;DHT22;379;49.022;12.148;2023-04-23T13:33:43;18.20;74.00
792;DHT22;379;49.022;12.148;2023-04-23T13:36:09;18.40;73.40
792;DHT22;379;49.022;12.148;2023-04-23T13:38:36;18.40;72.20
792;DHT22;379;49.022;12.148;2023-04-23T13:41:04;18.40;72.60
792;DHT22;379;49.022;12.148;2023-04-23T13:43:31;18.60;73.20
792;DHT22;379;49.022;12.148;2023-04-23T13:45:58;18.70;72.40
792;DHT22;379;49.022;12.148;2023-04-23T13:48:25;18.80;72.00
792;DHT22;379;49.022;12.148;2023-04-23T13:50:55;18.80;71.60
792;DHT22;379;49.022;12.148;2023-04-23T13:53:22;18.90;71.60
792;DHT22;379;49.022;12.148;2023-04-23T13:55:49;19.00;71.90
792;DHT22;379;49.022;12.148;2023-04-23T13:58:17;19.10;71.80
792;DHT22;379;49.022;12.148;2023-04-23T14:00:44;19.20;71.30
792;DHT22;379;49.022;12.148;2023-04-23T14:03:11;19.40;71.30
792;DHT22;379;49.022;12.148;2023-04-23T14:05:37;19.40;71.20
792;DHT22;379;49.022;12.148;2023-04-23T14:08:04;19.40;70.00
792;DHT22;379;49.022;12.148;2023-04-23T14:10:31;19.30;69.40
792;DHT22;379;49.022;12.148;2023-04-23T14:12:58;19.20;70.40
792;DHT22;379;49.022;12.148;2023-04-23T14:15:26;19.20;69.90
792;DHT22;379;49.022;12.148;2023-04-23T14:17:53;19.20;70.80
792;DHT22;379;49.022;12.148;2023-04-23T14:20:20;19.20;71.00
792;DHT22;379;49.022;12.148;2023-04-23T14:22:48;19.20;71.00
792;DHT22;379;49.022;12.148;2023-04-23T14:25:24;19.10;70.70
792;DHT22;379;49.022;12.148;2023-04-23T14:27:55;18.90;71.20
792;DHT22;379;49.022;12.148;2023-04-23T14:30:25;18.80;71.90
792;DHT22;379;49.022;12.148;2023-04-23T14:32:54;18.70;72.10
792;DHT22;379;49.022;12.148;2023-04-23T14:35:22;18.70;73.10
792;DHT22;379;49.022;12.148;2023-04-23T14:37:49;18.60;72.90
792;DHT22;379;49.022;12.148;2023-04-23T14:40:16;18.70;73.20
792;DHT22;379;49.022;12.148;2023-04-23T14:42:45;18.70;73.00
792;DHT22;379;49.022;12.148;2023-04-23T14:45:13;18.60;72.60
792;DHT22;379;49.022;12.148;2023-04-23T14:47:42;18.40;72.10
792;DHT22;379;49.022;12.148;2023-04-23T14:50:13;18.10;72.80
792;DHT22;379;49.022;12.148;2023-04-23T14:52:39;18.00;73.50
792;DHT22;379;49.022;12.148;2023-04-23T14:55:09;18.10;74.20
792;DHT22;379;49.022;12.148;2023-04-23T14:57:35;18.20;74.00
792;DHT22;379;49.022;12.148;2023-04-23T15:00:03;18.20;74.00
792;DHT22;379;49.022;12.148;2023-04-23T15:02:30;18.10;74.50
792;DHT22;379;49.022;12.148;2023-04-23T15:04:59;18.10;75.10
792;DHT22;379;49.022;12.148;2023-04-23T15:07:26;18.10;75.30
792;DHT22;379;49.022;12.148;2023-04-23T15:09:53;18.00;74.90
792;DHT22;379;49.022;12.148;2023-04-23T15:12:41;17.90;75.70
792;DHT22;379;49.022;12.148;2023-04-23T15:15:14;17.80;76.00
792;DHT22;379;49.022;12.148;2023-04-23T15:17:41;17.90;76.30
792;DHT22;379;49.022;12.148;2023-04-23T15:20:10;18.00;76.30
792;DHT22;379;49.022;12.148;2023-04-23T15:22:37;18.10;76.30
792;DHT22;379;49.022;12.148;2023-04-23T15:25:04;18.20;76.20
792;DHT22;379;49.022;12.148;2023-04-23T15:27:31;18.20;75.30
792;DHT22;379;49.022;12.148;2023-04-23T15:29:58;18.20;74.90
792;DHT22;379;49.022;12.148;2023-04-23T15:32:24;18.10;75.30
792;DHT22;379;49.022;12.148;2023-04-23T15:34:51;18.10;75.40
792;DHT22;379;49.022;12.148;2023-04-23T15:37:19;18.10;75.00
792;DHT22;379;49.022;12.148;2023-04-23T15:39:48;17.90;75.00
792;DHT22;379;49.022;12.148;2023-04-23T15:42:15;17.80;75.80
792;DHT22;379;49.022;12.148;2023-04-23T15:44:46;17.70;76.10
792;DHT22;379;49.022;12.148;2023-04-23T15:47:14;17.60;75.60
792;DHT22;379;49.022;12.148;2023-04-23T15:49:41;17.50;75.80
792;DHT22;379;49.022;12.148;2023-04-23T15:52:08;17.50;76.30
792;DHT22;379;49.022;12.148;2023-04-23T15:54:36;17.40;76.80
792;DHT22;379;49.022;12.148;2023-04-23T15:57:03;17.40;76.40
792;DHT22;379;49.022;12.148;2023-04-23T15:59:30;17.40;76.10
792;DHT22;379;49.022;12.148;2023-04-23T16:01:56;17.30;76.40
792;DHT22;379;49.022;12.148;2023-04-23T16:04:23;17.30;76.60
792;DHT22;379;49.022;12.148;2023-04-23T16:06:50;17.30;76.80
792;DHT22;379;49.022;12.148;2023-04-23T16:09:16;17.20;77.20
792;DHT22;379;49.022;12.148;2023-04-23T16:11:45;17.10;77.50
792;DHT22;379;49.022;12.148;2023-04-23T16:14:11;17.00;77.90
792;DHT22;379;49.022;12.148;2023-04-23T16:16:38;17.00;78.10
792;DHT22;379;49.022;12.148;2023-04-23T16:19:05;17.00;78.00
792;DHT22;379;49.022;12.148;2023-04-23T16:21:31;16.90;78.60